sensor_id;sensor_type;location;lat;lon;timestamp;P1;durP1;ratioP1;P2;durP2;ratioP2
16037;SDS011;8123;50.906;6.172;2023-04-25T00:01:13;18.43;;;6.37;;
16037;SDS011;8123;50.906;6.172;2023-04-25T00:03:38;18.03;;;5.47;;
16037;SDS011;8123;50.906;6.172;2023-04-25T00:06:05;21.80;;;5.87;;
16037;SDS011;8123;50.906;6.172;2023-04-25T00:08:31;11.83;;;5.30;;
16037;SDS011;8123;50.906;6.172;2023-04-25T00:10:58;28.80;;;6.50;;
16037;SDS011;8123;50.906;6.172;2023-04-25T00:13:24;15.97;;;5.93;;
16037;SDS011;8123;50.906;6.172;2023-04-25T00:15:51;10.43;;;5.03;;
16037;SDS011;8123;50.906;6.172;2023-04-25T00:18:18;15.10;;;5.93;;
16037;SDS011;8123;50.906;6.172;2023-04-25T00:20:45;25.13;;;5.50;;
16037;SDS011;8123;50.906;6.172;2023-04-25T00:23:20;14.67;;;6.10;;
16037;SDS011;8123;50.906;6.172;2023-04-25T00:25:49;20.93;;;5.23;;
16037;SDS011;8123;50.906;6.172;2023-04-25T00:28:15;22.77;;;6.23;;
16037;SDS011;8123;50.906;6.172;2023-04-25T00:30:42;12.67;;;5.80;;
16037;SDS011;8123;50.906;6.172;2023-04-25T00:33:08;34.93;;;5.60;;
16037;SDS011;8123;50.906;6.172;2023-04-25T00:35:35;19.80;;;6.13;;
16037;SDS011;8123;50.906;6.172;2023-04-25T00:38:00;17.70;;;5.60;;
16037;SDS011;8123;50.906;6.172;2023-04-25T00:40:26;22.37;;;5.73;;
16037;SDS011;8123;50.906;6.172;2023-04-25T00:42:52;23.27;;;5.80;;
16037;SDS011;8123;50.906;6.172;2023-04-25T00:45:18;11.80;;;4.77;;
16037;SDS011;8123;50.906;6.172;2023-04-25T00:47:45;25.23;;;5.90;;
16037;SDS011;8123;50.906;6.172;2023-04-25T00:50:11;19.60;;;5.70;;
16037;SDS011;8123;50.906;6.172;2023-04-25T00:52:41;19.80;;;5.03;;
16037;SDS011;8123;50.906;6.172;2023-04-25T00:55:10;18.90;;;5.20;;
16037;SDS011;8123;50.906;6.172;2023-04-25T00:57:37;13.03;;;5.87;;
16037;SDS011;8123;50.906;6.172;2023-04-25T01:00:04;16.70;;;5.20;;
16037;SDS011;8123;50.906;6.172;2023-04-25T01:02:32;21.23;;;5.70;;
16037;SDS011;8123;50.906;6.172;2023-04-25T01:04:58;20.73;;;5.43;;
16037;SDS011;8123;50.906;6.172;2023-04-25T01:07:24;18.57;;;5.97;;
16037;SDS011;8123;50.906;6.172;2023-04-25T01:09:53;15.80;;;5.00;;
16037;SDS011;8123;50.906;6.172;2023-04-25T01:12:19;15.00;;;5.50;;
16037;SDS011;8123;50.906;6.172;2023-04-25T01:14:45;16.30;;;6.77;;
16037;SDS011;8123;50.906;6.172;2023-04-25T01:17:11;24.60;;;5.33;;
16037;SDS011;8123;50.906;6.172;2023-04-25T01:19:37;19.13;;;7.43;;
16037;SDS011;8123;50.906;6.172;2023-04-25T01:22:03;33.00;;;7.47;;
16037;SDS011;8123;50.906;6.172;2023-04-25T01:24:29;22.73;;;5.77;;
16037;SDS011;8123;50.906;6.172;2023-04-25T01:26:58;24.73;;;6.67;;
16037;SDS011;8123;50.906;6.172;2023-04-25T01:29:26;29.47;;;6.40;;
16037;SDS011;8123;50.906;6.172;2023-04-25T01:31:53;21.03;;;7.13;;
16037;SDS011;8123;50.906;6.172;2023-04-25T01:34:19;25.37;;;6.37;;
16037;SDS011;8123;50.906;6.172;2023-04-25T01:36:45;33.03;;;6.90;;
16037;SDS011;8123;50.906;6.172;2023-04-25T01:39:15;15.00;;;6.33;;
16037;SDS011;8123;50.906;6.172;2023-04-25T01:41:41;19.23;;;6.77;;
16037;SDS011;8123;50.906;6.172;2023-04-25T01:44:08;13.97;;;4.93;;
16037;SDS011;8123;50.906;6.172;2023-04-25T01:46:33;27.30;;;6.77;;
16037;SDS011;8123;50.906;6.172;2023-04-25T01:48:59;17.13;;;7.87;;
16037;SDS011;8123;50.906;6.172;2023-04-25T01:51:25;22.40;;;6.90;;
16037;SDS011;8123;50.906;6.172;2023-04-25T01:53:51;28.23;;;6.03;;
16037;SDS011;8123;50.906;6.172;2023-04-25T01:56:18;21.40;;;5.97;;
16037;SDS011;8123;50.906;6.172;2023-04-25T01:58:43;18.87;;;5.50;;
16037;SDS011;8123;50.906;6.172;2023-04-25T02:01:09;22.87;;;5.90;;
16037;SDS011;8123;50.906;6.172;2023-04-25T02:03:35;23.13;;;6.30;;
16037;SDS011;8123;50.906;6.172;2023-04-25T02:06:01;15.27;;;6.10;;
16037;SDS011;8123;50.906;6.172;2023-04-25T02:08:27;19.43;;;6.13;;
16037;SDS011;8123;50.906;6.172;2023-04-25T02:10:53;18.10;;;6.30;;
16037;SDS011;8123;50.906;6.172;2023-04-25T02:13:18;19.33;;;6.40;;
16037;SDS011;8123;50.906;6.172;2023-04-25T02:15:44;14.50;;;6.00;;
16037;SDS011;8123;50.906;6.172;2023-04-25T02:18:09;22.00;;;5.90;;
16037;SDS011;8123;50.906;6.172;2023-04-25T02:20:36;22.50;;;7.10;;
16037;SDS011;8123;50.906;6.172;2023-04-25T02:23:02;33.37;;;7.03;;
16037;SDS011;8123;50.906;6.172;2023-04-25T02:25:28;27.60;;;6.60;;
16037;SDS011;8123;50.906;6.172;2023-04-25T02:27:53;19.23;;;5.77;;
16037;SDS011;8123;50.906;6.172;2023-04-25T02:30:19;21.27;;;7.00;;
16037;SDS011;8123;50.906;6.172;2023-04-25T02:32:45;15.93;;;6.13;;
16037;SDS011;8123;50.906;6.172;2023-04-25T02:35:11;27.10;;;7.10;;
16037;SDS011;8123;50.906;6.172;2023-04-25T02:37:37;22.30;;;6.57;;
16037;SDS011;8123;50.906;6.172;2023-04-25T02:40:04;27.27;;;8.10;;
16037;SDS011;8123;50.906;6.172;2023-04-25T02:42:30;21.13;;;6.13;;
16037;SDS011;8123;50.906;6.172;2023-04-25T02:44:56;21.20;;;6.07;;
16037;SDS011;8123;50.906;6.172;2023-04-25T02:47:22;28.23;;;6.57;;
16037;SDS011;8123;50.906;6.172;2023-04-25T02:49:47;28.40;;;6.83;;
16037;SDS011;8123;50.906;6.172;2023-04-25T02:52:13;33.40;;;6.67;;
16037;SDS011;8123;50.906;6.172;2023-04-25T02:54:39;16.57;;;5.93;;
16037;SDS011;8123;50.906;6.172;2023-04-25T02:57:05;16.50;;;6.67;;
16037;SDS011;8123;50.906;6.172;2023-04-25T02:59:31;20.20;;;6.03;;
16037;SDS011;8123;50.906;6.172;2023-04-25T03:01:57;17.60;;;7.10;;
16037;SDS011;8123;50.906;6.172;2023-04-25T03:04:23;22.30;;;6.10;;
16037;SDS011;8123;50.906;6.172;2023-04-25T03:06:51;26.50;;;6.27;;
16037;SDS011;8123;50.906;6.172;2023-04-25T03:09:18;15.40;;;5.00;;
16037;SDS011;8123;50.906;6.172;2023-04-25T03:11:44;26.27;;;6.70;;
16037;SDS011;8123;50.906;6.172;2023-04-25T03:14:10;17.00;;;6.20;;
16037;SDS011;8123;50.906;6.172;2023-04-25T03:16:37;15.50;;;5.90;;
16037;SDS011;8123;50.906;6.172;2023-04-25T03:19:03;26.00;;;7.23;;
16037;SDS011;8123;50.906;6.172;2023-04-25T03:21:29;23.17;;;7.10;;
16037;SDS011;8123;50.906;6.172;2023-04-25T03:23:59;17.50;;;5.53;;
16037;SDS011;8123;50.906;6.172;2023-04-25T03:26:25;22.73;;;6.73;;
16037;SDS011;8123;50.906;6.172;2023-04-25T03:28:51;21.53;;;6.67;;
16037;SDS011;8123;50.906;6.172;2023-04-25T03:31:16;22.43;;;6.53;;
16037;SDS011;8123;50.906;6.172;2023-04-25T03:33:42;16.00;;;5.33;;
16037;SDS011;8123;50.906;6.172;2023-04-25T03:36:08;23.20;;;7.30;;
16037;SDS011;8123;50.906;6.172;2023-04-25T03:38:34;23.67;;;6.40;;
16037;SDS011;8123;50.906;6.172;2023-04-25T03:41:00;21.17;;;5.97;;
16037;SDS011;8123;50.906;6.172;2023-04-25T03:43:26;25.60;;;6.03;;
16037;SDS011;8123;50.906;6.172;2023-04-25T03:45:52;29.30;;;7.20;;
16037;SDS011;8123;50.906;6.172;2023-04-25T03:48:18;15.73;;;6.23;;
16037;SDS011;8123;50.906;6.172;2023-04-25T03:50:46;18.47;;;6.23;;
16037;SDS011;8123;50.906;6.172;2023-04-25T03:53:12;25.73;;;6.20;;
16037;SDS011;8123;50.906;6.172;2023-04-25T03:55:37;27.87;;;7.43;;
16037;SDS011;8123;50.906;6.172;2023-04-25T03:58:03;15.00;;;6.27;;
16037;SDS011;8123;50.906;6.172;2023-04-25T04:00:29;17.33;;;6.40;;
16037;SDS011;8123;50.906;6.172;2023-04-25T04:02:55;23.40;;;6.10;;
16037;SDS011;8123;50.906;6.172;2023-04-25T04:05:21;15.57;;;5.67;;
16037;SDS011;8123;50.906;6.172;2023-04-25T04:07:47;22.33;;;6.23;;
16037;SDS011;8123;50.906;6.172;2023-04-25T04:10:12;26.83;;;6.13;;
16037;SDS011;8123;50.906;6.172;2023-04-25T04:12:38;23.27;;;5.87;;
16037;SDS011;8123;50.906;6.172;2023-04-25T04:15:04;33.03;;;7.10;;
16037;SDS011;8123;50.906;6.172;2023-04-25T04:17:31;33.67;;;7.10;;
16037;SDS011;8123;50.906;6.172;2023-04-25T04:19:57;18.17;;;6.27;;
16037;SDS011;8123;50.906;6.172;2023-04-25T04:22:23;34.00;;;6.70;;
16037;SDS011;8123;50.906;6.172;2023-04-25T04:24:49;27.47;;;7.10;;
16037;SDS011;8123;50.906;6.172;2023-04-25T04:27:15;27.60;;;7.90;;
16037;SDS011;8123;50.906;6.172;2023-04-25T04:29:44;27.97;;;6.73;;
16037;SDS011;8123;50.906;6.172;2023-04-25T04:32:11;24.80;;;7.13;;
16037;SDS011;8123;50.906;6.172;2023-04-25T04:34:37;30.90;;;7.03;;
16037;SDS011;8123;50.906;6.172;2023-04-25T04:37:04;32.10;;;7.10;;
16037;SDS011;8123;50.906;6.172;2023-04-25T04:39:31;19.93;;;7.17;;
16037;SDS011;8123;50.906;6.172;2023-04-25T04:41:57;23.83;;;6.40;;
16037;SDS011;8123;50.906;6.172;2023-04-25T04:44:24;20.67;;;6.33;;
16037;SDS011;8123;50.906;6.172;2023-04-25T04:46:50;30.90;;;8.43;;
16037;SDS011;8123;50.906;6.172;2023-04-25T04:49:16;22.13;;;6.93;;
16037;SDS011;8123;50.906;6.172;2023-04-25T04:51:42;20.10;;;6.50;;
16037;SDS011;8123;50.906;6.172;2023-04-25T04:54:11;30.10;;;6.50;;
16037;SDS011;8123;50.906;6.172;2023-04-25T04:56:37;27.43;;;8.40;;
16037;SDS011;8123;50.906;6.172;2023-04-25T04:59:03;35.97;;;7.00;;
16037;SDS011;8123;50.906;6.172;2023-04-25T05:01:28;18.23;;;5.57;;
16037;SDS011;8123;50.906;6.172;2023-04-25T05:03:57;21.43;;;7.13;;
16037;SDS011;8123;50.906;6.172;2023-04-25T05:06:25;32.37;;;7.30;;
16037;SDS011;8123;50.906;6.172;2023-04-25T05:08:54;23.33;;;7.10;;
16037;SDS011;8123;50.906;6.172;2023-04-25T05:11:21;16.90;;;6.97;;
16037;SDS011;8123;50.906;6.172;2023-04-25T05:13:48;25.13;;;6.10;;
16037;SDS011;8123;50.906;6.172;2023-04-25T05:16:14;24.57;;;6.77;;
16037;SDS011;8123;50.906;6.172;2023-04-25T05:18:40;22.43;;;6.90;;
16037;SDS011;8123;50.906;6.172;2023-04-25T05:21:06;27.17;;;8.80;;
16037;SDS011;8123;50.906;6.172;2023-04-25T05:23:32;27.13;;;6.53;;
16037;SDS011;8123;50.906;6.172;2023-04-25T05:25:58;19.70;;;6.50;;
16037;SDS011;8123;50.906;6.172;2023-04-25T05:28:24;24.07;;;7.03;;
16037;SDS011;8123;50.906;6.172;2023-04-25T05:30:50;31.83;;;8.13;;
16037;SDS011;8123;50.906;6.172;2023-04-25T05:33:16;31.40;;;7.90;;
16037;SDS011;8123;50.906;6.172;2023-04-25T05:35:41;39.57;;;6.57;;
16037;SDS011;8123;50.906;6.172;2023-04-25T05:38:07;22.93;;;6.10;;
16037;SDS011;8123;50.906;6.172;2023-04-25T05:40:33;33.73;;;6.93;;
16037;SDS011;8123;50.906;6.172;2023-04-25T05:42:58;18.00;;;7.17;;
16037;SDS011;8123;50.906;6.172;2023-04-25T05:45:24;21.63;;;6.83;;
16037;SDS011;8123;50.906;6.172;2023-04-25T05:47:49;25.20;;;6.93;;
16037;SDS011;8123;50.906;6.172;2023-04-25T05:50:15;37.17;;;8.90;;
16037;SDS011;8123;50.906;6.172;2023-04-25T05:52:41;28.27;;;7.33;;
16037;SDS011;8123;50.906;6.172;2023-04-25T05:55:06;22.07;;;9.03;;
16037;SDS011;8123;50.906;6.172;2023-04-25T05:57:32;27.87;;;8.40;;
16037;SDS011;8123;50.906;6.172;2023-04-25T05:59:58;16.40;;;5.90;;
16037;SDS011;8123;50.906;6.172;2023-04-25T06:02:24;29.13;;;7.67;;
16037;SDS011;8123;50.906;6.172;2023-04-25T06:04:50;32.57;;;8.87;;
16037;SDS011;8123;50.906;6.172;2023-04-25T06:07:16;24.17;;;7.70;;
16037;SDS011;8123;50.906;6.172;2023-04-25T06:09:42;34.20;;;6.33;;
16037;SDS011;8123;50.906;6.172;2023-04-25T06:12:08;21.70;;;6.00;;
16037;SDS011;8123;50.906;6.172;2023-04-25T06:14:34;32.27;;;6.97;;
16037;SDS011;8123;50.906;6.172;2023-04-25T06:17:00;17.97;;;7.27;;
16037;SDS011;8123;50.906;6.172;2023-04-25T06:19:31;15.60;;;6.33;;
16037;SDS011;8123;50.906;6.172;2023-04-25T06:21:57;23.47;;;7.30;;
16037;SDS011;8123;50.906;6.172;2023-04-25T06:24:23;25.83;;;5.13;;
16037;SDS011;8123;50.906;6.172;2023-04-25T06:26:49;23.70;;;6.43;;
16037;SDS011;8123;50.906;6.172;2023-04-25T06:29:15;18.13;;;6.40;;
16037;SDS011;8123;50.906;6.172;2023-04-25T06:31:40;21.40;;;6.27;;
16037;SDS011;8123;50.906;6.172;2023-04-25T06:34:06;21.13;;;5.77;;
16037;SDS011;8123;50.906;6.172;2023-04-25T06:36:31;20.00;;;5.20;;
16037;SDS011;8123;50.906;6.172;2023-04-25T06:38:57;15.90;;;6.40;;
16037;SDS011;8123;50.906;6.172;2023-04-25T06:41:23;20.97;;;5.87;;
16037;SDS011;8123;50.906;6.172;2023-04-25T06:43:48;26.53;;;5.47;;
16037;SDS011;8123;50.906;6.172;2023-04-25T06:46:14;20.50;;;5.60;;
16037;SDS011;8123;50.906;6.172;2023-04-25T06:48:39;21.57;;;6.57;;
16037;SDS011;8123;50.906;6.172;2023-04-25T06:51:05;28.83;;;5.87;;
16037;SDS011;8123;50.906;6.172;2023-04-25T06:53:31;16.70;;;4.23;;
16037;SDS011;8123;50.906;6.172;2023-04-25T06:55:56;20.73;;;4.90;;
16037;SDS011;8123;50.906;6.172;2023-04-25T06:58:22;10.20;;;4.63;;
16037;SDS011;8123;50.906;6.172;2023-04-25T07:00:48;17.63;;;4.60;;
16037;SDS011;8123;50.906;6.172;2023-04-25T07:03:13;42.03;;;7.20;;
16037;SDS011;8123;50.906;6.172;2023-04-25T07:05:39;11.77;;;5.37;;
16037;SDS011;8123;50.906;6.172;2023-04-25T07:08:05;14.70;;;5.63;;
16037;SDS011;8123;50.906;6.172;2023-04-25T07:10:31;18.37;;;5.57;;
16037;SDS011;8123;50.906;6.172;2023-04-25T07:12:56;26.37;;;5.87;;
16037;SDS011;8123;50.906;6.172;2023-04-25T07:15:22;21.57;;;5.17;;
16037;SDS011;8123;50.906;6.172;2023-04-25T07:17:47;14.07;;;4.50;;
16037;SDS011;8123;50.906;6.172;2023-04-25T07:20:13;19.07;;;4.10;;
16037;SDS011;8123;50.906;6.172;2023-04-25T07:22:38;14.70;;;4.40;;
16037;SDS011;8123;50.906;6.172;2023-04-25T07:25:04;23.47;;;5.47;;
16037;SDS011;8123;50.906;6.172;2023-04-25T07:27:31;16.67;;;3.77;;
16037;SDS011;8123;50.906;6.172;2023-04-25T07:29:56;9.80;;;3.70;;
16037;SDS011;8123;50.906;6.172;2023-04-25T07:32:22;18.63;;;4.20;;
16037;SDS011;8123;50.906;6.172;2023-04-25T07:34:48;23.63;;;5.30;;
16037;SDS011;8123;50.906;6.172;2023-04-25T07:37:14;9.03;;;3.93;;
16037;SDS011;8123;50.906;6.172;2023-04-25T07:39:40;11.70;;;3.90;;
16037;SDS011;8123;50.906;6.172;2023-04-25T07:42:06;27.77;;;5.57;;
16037;SDS011;8123;50.906;6.172;2023-04-25T07:44:36;20.07;;;4.80;;
16037;SDS011;8123;50.906;6.172;2023-04-25T07:47:06;27.00;;;5.07;;
16037;SDS011;8123;50.906;6.172;2023-04-25T07:49:36;15.90;;;4.10;;
16037;SDS011;8123;50.906;6.172;2023-04-25T07:52:02;15.70;;;4.57;;
16037;SDS011;8123;50.906;6.172;2023-04-25T07:54:28;12.50;;;3.13;;
16037;SDS011;8123;50.906;6.172;2023-04-25T07:56:55;14.63;;;3.60;;
16037;SDS011;8123;50.906;6.172;2023-04-25T07:59:21;15.83;;;3.63;;
16037;SDS011;8123;50.906;6.172;2023-04-25T08:01:47;14.13;;;3.27;;
16037;SDS011;8123;50.906;6.172;2023-04-25T08:04:12;18.27;;;5.60;;
16037;SDS011;8123;50.906;6.172;2023-04-25T08:06:38;13.63;;;4.17;;
16037;SDS011;8123;50.906;6.172;2023-04-25T08:09:05;15.50;;;3.50;;
16037;SDS011;8123;50.906;6.172;2023-04-25T08:11:31;10.47;;;2.87;;
16037;SDS011;8123;50.906;6.172;2023-04-25T08:13:57;13.47;;;3.60;;
16037;SDS011;8123;50.906;6.172;2023-04-25T08:16:22;21.70;;;4.20;;
16037;SDS011;8123;50.906;6.172;2023-04-25T08:18:49;12.63;;;3.70;;
16037;SDS011;8123;50.906;6.172;2023-04-25T08:21:15;16.57;;;3.70;;
16037;SDS011;8123;50.906;6.172;2023-04-25T08:23:40;11.53;;;3.87;;
16037;SDS011;8123;50.906;6.172;2023-04-25T08:26:06;14.37;;;4.10;;
16037;SDS011;8123;50.906;6.172;2023-04-25T08:28:37;13.43;;;6.20;;
16037;SDS011;8123;50.906;6.172;2023-04-25T08:31:03;10.80;;;3.63;;
16037;SDS011;8123;50.906;6.172;2023-04-25T08:33:29;16.50;;;3.57;;
16037;SDS011;8123;50.906;6.172;2023-04-25T08:35:55;9.60;;;3.80;;
16037;SDS011;8123;50.906;6.172;2023-04-25T08:38:21;5.63;;;3.00;;
16037;SDS011;8123;50.906;6.172;2023-04-25T08:40:48;14.23;;;4.00;;
16037;SDS011;8123;50.906;6.172;2023-04-25T08:43:16;14.53;;;4.27;;
16037;SDS011;8123;50.906;6.172;2023-04-25T08:45:43;10.80;;;3.33;;
16037;SDS011;8123;50.906;6.172;2023-04-25T08:48:13;11.20;;;4.03;;
16037;SDS011;8123;50.906;6.172;2023-04-25T08:50:43;16.50;;;3.90;;
16037;SDS011;8123;50.906;6.172;2023-04-25T08:53:14;24.77;;;4.60;;
16037;SDS011;8123;50.906;6.172;2023-04-25T08:55:44;14.03;;;4.10;;
16037;SDS011;8123;50.906;6.172;2023-04-25T08:58:11;13.33;;;3.30;;
16037;SDS011;8123;50.906;6.172;2023-04-25T09:00:38;15.17;;;3.70;;
16037;SDS011;8123;50.906;6.172;2023-04-25T09:03:04;16.60;;;4.83;;
16037;SDS011;8123;50.906;6.172;2023-04-25T09:05:31;9.47;;;3.80;;
16037;SDS011;8123;50.906;6.172;2023-04-25T09:07:57;22.60;;;4.17;;
16037;SDS011;8123;50.906;6.172;2023-04-25T09:10:23;19.33;;;5.93;;
16037;SDS011;8123;50.906;6.172;2023-04-25T09:13:01;5.73;;;3.33;;
16037;SDS011;8123;50.906;6.172;2023-04-25T09:15:52;10.60;;;3.43;;
16037;SDS011;8123;50.906;6.172;2023-04-25T09:18:30;9.67;;;3.70;;
16037;SDS011;8123;50.906;6.172;2023-04-25T09:21:10;11.87;;;3.40;;
16037;SDS011;8123;50.906;6.172;2023-04-25T09:23:47;10.40;;;3.83;;
16037;SDS011;8123;50.906;6.172;2023-04-25T09:26:15;10.77;;;3.87;;
16037;SDS011;8123;50.906;6.172;2023-04-25T09:28:44;13.00;;;4.50;;
16037;SDS011;8123;50.906;6.172;2023-04-25T09:31:11;12.33;;;3.40;;
16037;SDS011;8123;50.906;6.172;2023-04-25T09:33:37;9.33;;;4.40;;
16037;SDS011;8123;50.906;6.172;2023-04-25T09:38:29;7.77;;;3.70;;
16037;SDS011;8123;50.906;6.172;2023-04-25T09:40:56;8.87;;;4.23;;
16037;SDS011;8123;50.906;6.172;2023-04-25T09:43:22;15.90;;;4.30;;
16037;SDS011;8123;50.906;6.172;2023-04-25T09:45:50;9.13;;;3.20;;
16037;SDS011;8123;50.906;6.172;2023-04-25T09:48:18;13.63;;;3.80;;
16037;SDS011;8123;50.906;6.172;2023-04-25T09:51:27;10.47;;;3.30;;
16037;SDS011;8123;50.906;6.172;2023-04-25T09:53:36;15.50;;;3.20;;
16037;SDS011;8123;50.906;6.172;2023-04-25T09:56:03;8.17;;;3.77;;
16037;SDS011;8123;50.906;6.172;2023-04-25T09:58:31;7.53;;;2.67;;
16037;SDS011;8123;50.906;6.172;2023-04-25T10:00:59;15.03;;;3.70;;
16037;SDS011;8123;50.906;6.172;2023-04-25T10:03:28;12.63;;;3.53;;
16037;SDS011;8123;50.906;6.172;2023-04-25T10:05:59;15.00;;;3.13;;
16037;SDS011;8123;50.906;6.172;2023-04-25T10:08:33;10.23;;;2.73;;
16037;SDS011;8123;50.906;6.172;2023-04-25T10:11:01;11.90;;;3.30;;
16037;SDS011;8123;50.906;6.172;2023-04-25T10:13:31;11.40;;;3.27;;
16037;SDS011;8123;50.906;6.172;2023-04-25T10:15:58;13.27;;;3.30;;
16037;SDS011;8123;50.906;6.172;2023-04-25T10:18:26;7.90;;;3.63;;
16037;SDS011;8123;50.906;6.172;2023-04-25T10:20:53;19.23;;;3.57;;
16037;SDS011;8123;50.906;6.172;2023-04-25T10:23:30;10.90;;;3.83;;
16037;SDS011;8123;50.906;6.172;2023-04-25T10:25:56;10.17;;;3.33;;
16037;SDS011;8123;50.906;6.172;2023-04-25T10:28:23;16.90;;;3.60;;
16037;SDS011;8123;50.906;6.172;2023-04-25T10:33:35;7.63;;;2.63;;
16037;SDS011;8123;50.906;6.172;2023-04-25T10:36:12;10.00;;;3.30;;
16037;SDS011;8123;50.906;6.172;2023-04-25T10:38:39;7.97;;;3.10;;
16037;SDS011;8123;50.906;6.172;2023-04-25T10:41:05;7.60;;;3.50;;
16037;SDS011;8123;50.906;6.172;2023-04-25T10:43:39;10.33;;;3.50;;
16037;SDS011;8123;50.906;6.172;2023-04-25T10:46:25;7.90;;;3.10;;
16037;SDS011;8123;50.906;6.172;2023-04-25T10:48:53;7.20;;;2.70;;
16037;SDS011;8123;50.906;6.172;2023-04-25T10:51:29;25.77;;;4.57;;
16037;SDS011;8123;50.906;6.172;2023-04-25T10:53:59;10.30;;;2.50;;
16037;SDS011;8123;50.906;6.172;2023-04-25T10:56:30;13.93;;;3.17;;
16037;SDS011;8123;50.906;6.172;2023-04-25T10:59:16;11.83;;;3.87;;
16037;SDS011;8123;50.906;6.172;2023-04-25T11:01:44;9.10;;;3.23;;
16037;SDS011;8123;50.906;6.172;2023-04-25T11:04:20;6.27;;;3.20;;
16037;SDS011;8123;50.906;6.172;2023-04-25T11:09:48;5.43;;;3.37;;
16037;SDS011;8123;50.906;6.172;2023-04-25T11:12:14;7.10;;;2.93;;
16037;SDS011;8123;50.906;6.172;2023-04-25T11:14:41;9.23;;;2.93;;
16037;SDS011;8123;50.906;6.172;2023-04-25T11:17:07;10.40;;;3.00;;
16037;SDS011;8123;50.906;6.172;2023-04-25T11:19:32;8.93;;;3.30;;
16037;SDS011;8123;50.906;6.172;2023-04-25T11:21:59;5.40;;;2.70;;
16037;SDS011;8123;50.906;6.172;2023-04-25T11:24:29;7.50;;;4.00;;
16037;SDS011;8123;50.906;6.172;2023-04-25T11:26:59;13.07;;;3.17;;
16037;SDS011;8123;50.906;6.172;2023-04-25T11:29:27;11.37;;;3.10;;
16037;SDS011;8123;50.906;6.172;2023-04-25T11:31:54;8.93;;;3.00;;
16037;SDS011;8123;50.906;6.172;2023-04-25T11:34:23;8.93;;;3.60;;
16037;SDS011;8123;50.906;6.172;2023-04-25T11:36:52;7.13;;;3.10;;
16037;SDS011;8123;50.906;6.172;2023-04-25T11:39:19;16.37;;;3.33;;
16037;SDS011;8123;50.906;6.172;2023-04-25T11:41:45;9.73;;;3.20;;
16037;SDS011;8123;50.906;6.172;2023-04-25T11:44:12;7.10;;;2.80;;
16037;SDS011;8123;50.906;6.172;2023-04-25T11:46:40;13.50;;;3.20;;
16037;SDS011;8123;50.906;6.172;2023-04-25T11:49:07;7.50;;;2.97;;
16037;SDS011;8123;50.906;6.172;2023-04-25T11:51:42;7.87;;;3.30;;
16037;SDS011;8123;50.906;6.172;2023-04-25T11:54:09;9.13;;;3.03;;
16037;SDS011;8123;50.906;6.172;2023-04-25T11:56:36;7.03;;;3.43;;
16037;SDS011;8123;50.906;6.172;2023-04-25T11:59:03;5.50;;;2.60;;
16037;SDS011;8123;50.906;6.172;2023-04-25T12:01:31;7.27;;;2.70;;
16037;SDS011;8123;50.906;6.172;2023-04-25T12:03:58;8.77;;;2.27;;
16037;SDS011;8123;50.906;6.172;2023-04-25T12:06:36;4.23;;;2.60;;
16037;SDS011;8123;50.906;6.172;2023-04-25T12:09:10;9.37;;;2.00;;
16037;SDS011;8123;50.906;6.172;2023-04-25T12:11:44;6.73;;;2.30;;
16037;SDS011;8123;50.906;6.172;2023-04-25T12:14:24;7.80;;;2.83;;
16037;SDS011;8123;50.906;6.172;2023-04-25T12:16:52;9.43;;;2.67;;
16037;SDS011;8123;50.906;6.172;2023-04-25T12:19:20;4.07;;;2.33;;
16037;SDS011;8123;50.906;6.172;2023-04-25T12:21:46;5.03;;;2.60;;
16037;SDS011;8123;50.906;6.172;2023-04-25T12:24:22;5.20;;;2.03;;
16037;SDS011;8123;50.906;6.172;2023-04-25T12:29:27;6.30;;;2.77;;
16037;SDS011;8123;50.906;6.172;2023-04-25T12:31:54;5.50;;;2.73;;
16037;SDS011;8123;50.906;6.172;2023-04-25T12:34:21;4.60;;;2.57;;
16037;SDS011;8123;50.906;6.172;2023-04-25T12:36:47;13.73;;;2.93;;
16037;SDS011;8123;50.906;6.172;2023-04-25T12:41:43;7.30;;;2.90;;
16037;SDS011;8123;50.906;6.172;2023-04-25T12:44:09;2.67;;;2.20;;
16037;SDS011;8123;50.906;6.172;2023-04-25T12:46:35;10.83;;;2.77;;
16037;SDS011;8123;50.906;6.172;2023-04-25T12:49:02;4.73;;;2.63;;
16037;SDS011;8123;50.906;6.172;2023-04-25T12:51:29;4.90;;;2.50;;
16037;SDS011;8123;50.906;6.172;2023-04-25T12:53:54;9.50;;;3.10;;
16037;SDS011;8123;50.906;6.172;2023-04-25T12:56:20;6.43;;;4.63;;
16037;SDS011;8123;50.906;6.172;2023-04-25T12:58:46;8.07;;;3.17;;
16037;SDS011;8123;50.906;6.172;2023-04-25T13:01:13;7.90;;;3.03;;
16037;SDS011;8123;50.906;6.172;2023-04-25T13:03:39;8.70;;;3.00;;
16037;SDS011;8123;50.906;6.172;2023-04-25T13:06:05;8.50;;;2.03;;
16037;SDS011;8123;50.906;6.172;2023-04-25T13:08:31;6.00;;;2.40;;
16037;SDS011;8123;50.906;6.172;2023-04-25T13:10:58;4.07;;;3.17;;
16037;SDS011;8123;50.906;6.172;2023-04-25T13:13:23;3.03;;;2.30;;
16037;SDS011;8123;50.906;6.172;2023-04-25T13:15:49;7.60;;;2.70;;
16037;SDS011;8123;50.906;6.172;2023-04-25T13:18:15;10.13;;;2.70;;
16037;SDS011;8123;50.906;6.172;2023-04-25T13:20:41;10.73;;;2.93;;
16037;SDS011;8123;50.906;6.172;2023-04-25T13:23:06;9.00;;;2.37;;
16037;SDS011;8123;50.906;6.172;2023-04-25T13:25:32;3.13;;;2.50;;
16037;SDS011;8123;50.906;6.172;2023-04-25T13:27:57;6.97;;;2.90;;
16037;SDS011;8123;50.906;6.172;2023-04-25T13:30:23;6.73;;;2.00;;
16037;SDS011;8123;50.906;6.172;2023-04-25T13:32:49;2.93;;;1.97;;
16037;SDS011;8123;50.906;6.172;2023-04-25T13:35:14;5.03;;;1.80;;
16037;SDS011;8123;50.906;6.172;2023-04-25T13:37:41;4.90;;;2.30;;
16037;SDS011;8123;50.906;6.172;2023-04-25T13:40:07;3.20;;;2.30;;
16037;SDS011;8123;50.906;6.172;2023-04-25T13:42:38;7.40;;;3.50;;
16037;SDS011;8123;50.906;6.172;2023-04-25T13:45:04;10.70;;;2.23;;
16037;SDS011;8123;50.906;6.172;2023-04-25T13:47:30;3.23;;;2.33;;
16037;SDS011;8123;50.906;6.172;2023-04-25T13:49:56;6.13;;;2.40;;
16037;SDS011;8123;50.906;6.172;2023-04-25T13:52:22;2.10;;;2.00;;
16037;SDS011;8123;50.906;6.172;2023-04-25T13:54:49;2.77;;;2.00;;
16037;SDS011;8123;50.906;6.172;2023-04-25T13:57:15;3.90;;;2.10;;
16037;SDS011;8123;50.906;6.172;2023-04-25T13:59:41;6.63;;;2.17;;
16037;SDS011;8123;50.906;6.172;2023-04-25T14:02:07;3.93;;;2.30;;
16037;SDS011;8123;50.906;6.172;2023-04-25T14:04:33;5.60;;;2.77;;
16037;SDS011;8123;50.906;6.172;2023-04-25T14:06:58;6.23;;;2.40;;
16037;SDS011;8123;50.906;6.172;2023-04-25T14:09:24;6.20;;;2.40;;
16037;SDS011;8123;50.906;6.172;2023-04-25T14:11:52;7.77;;;3.50;;
16037;SDS011;8123;50.906;6.172;2023-04-25T14:14:18;6.13;;;2.13;;
16037;SDS011;8123;50.906;6.172;2023-04-25T14:16:44;4.53;;;1.97;;
16037;SDS011;8123;50.906;6.172;2023-04-25T14:19:10;7.97;;;2.70;;
16037;SDS011;8123;50.906;6.172;2023-04-25T14:21:36;7.20;;;2.70;;
16037;SDS011;8123;50.906;6.172;2023-04-25T14:24:02;16.20;;;2.50;;
16037;SDS011;8123;50.906;6.172;2023-04-25T14:26:28;6.77;;;2.80;;
16037;SDS011;8123;50.906;6.172;2023-04-25T14:28:53;12.63;;;2.83;;
16037;SDS011;8123;50.906;6.172;2023-04-25T14:31:19;5.43;;;2.17;;
16037;SDS011;8123;50.906;6.172;2023-04-25T14:33:44;4.10;;;2.60;;
16037;SDS011;8123;50.906;6.172;2023-04-25T14:36:10;5.97;;;3.17;;
16037;SDS011;8123;50.906;6.172;2023-04-25T14:38:36;5.07;;;1.77;;
16037;SDS011;8123;50.906;6.172;2023-04-25T14:41:02;7.03;;;2.80;;
16037;SDS011;8123;50.906;6.172;2023-04-25T14:43:28;4.80;;;2.20;;
16037;SDS011;8123;50.906;6.172;2023-04-25T14:45:53;13.53;;;2.50;;
16037;SDS011;8123;50.906;6.172;2023-04-25T14:48:19;14.00;;;2.70;;
16037;SDS011;8123;50.906;6.172;2023-04-25T14:50:45;7.83;;;2.30;;
16037;SDS011;8123;50.906;6.172;2023-04-25T14:53:11;4.17;;;1.70;;
16037;SDS011;8123;50.906;6.172;2023-04-25T14:55:37;3.90;;;2.20;;
16037;SDS011;8123;50.906;6.172;2023-04-25T14:58:03;11.10;;;2.73;;
16037;SDS011;8123;50.906;6.172;2023-04-25T15:00:28;7.17;;;2.00;;
16037;SDS011;8123;50.906;6.172;2023-04-25T15:02:56;12.60;;;2.37;;